Time;durP1;ratioP1;P1;durP2;ratioP2;P2;SDS_P1;SDS_P2;PMS_P1;PMS_P2;Temp;Humidity;BMP_temperature;BMP_pressure;BME280_temperature;BME280_humidity;BME280_pressure;Samples;Min_cycle;Max_cycle;Signal;HPM_P1;HPM_P2
2022/11/13 00:00:40;;;;;;;8.55;5.28;;;;;;;8.42;83.55;102429.56;4989472;28;20053;-80
2022/11/13 00:03:28;;;;;;;10.65;5.80;;;;;;;8.31;83.50;102423.31;4984931;28;20050;-80
2022/11/13 00:06:13;;;;;;;11.55;5.95;;;;;;;8.21;84.34;102434.34;4985196;28;20053;-79
2022/11/13 00:08:57;;;;;;;10.45;5.80;;;;;;;8.19;84.92;102431.88;4992207;28;20052;-80
2022/11/13 00:11:41;;;;;;;10.93;5.10;;;;;;;8.15;84.58;102433.81;4989879;28;20113;-82
2022/11/13 00:14:25;;;;;;;10.88;6.00;;;;;;;8.12;84.97;102428.06;4990951;28;20060;-80
2022/11/13 00:17:09;;;;;;;10.00;5.75;;;;;;;8.06;85.11;102429.28;4979469;28;20076;-79
2022/11/13 00:19:53;;;;;;;9.05;5.63;;;;;;;8.02;85.36;102426.97;4990695;28;20124;-81
2022/11/13 00:22:37;;;;;;;10.20;5.78;;;;;;;7.99;85.51;102415.91;4983582;28;20050;-81
2022/11/13 00:25:21;;;;;;;10.45;6.03;;;;;;;7.96;85.30;102412.69;4990017;28;20088;-81
2022/11/13 00:28:05;;;;;;;15.55;6.07;;;;;;;7.94;85.43;102412.78;4990079;28;20041;-81
2022/11/13 00:30:49;;;;;;;11.00;6.10;;;;;;;8.08;84.66;102404.16;4993390;28;20041;-83
2022/11/13 00:33:35;;;;;;;9.93;5.50;;;;;;;7.91;84.90;102407.84;4988815;28;20085;-79
2022/11/13 00:36:22;;;;;;;9.63;5.93;;;;;;;7.93;84.91;102407.72;4997923;28;20124;-82
2022/11/13 00:39:06;;;;;;;8.77;5.68;;;;;;;7.84;85.29;102404.00;5003203;28;20431;-79
2022/11/13 00:41:50;;;;;;;8.80;5.40;;;;;;;7.85;85.36;102399.66;4995445;28;20101;-80
2022/11/13 00:44:34;;;;;;;10.82;5.85;;;;;;;7.80;85.25;102400.78;4997100;28;20577;-81
2022/11/13 00:47:18;;;;;;;11.35;6.07;;;;;;;7.78;85.74;102396.66;5034414;23;20075;-75
2022/11/13 00:50:02;;;;;;;11.50;6.13;;;;;;;7.75;85.97;102396.84;5029008;28;20112;-75
2022/11/13 00:52:47;;;;;;;10.80;5.75;;;;;;;7.67;86.22;102393.94;5027406;28;20091;-76
2022/11/13 00:55:31;;;;;;;12.45;6.18;;;;;;;7.65;86.26;102390.59;5024766;28;21303;-76
2022/11/13 00:58:15;;;;;;;10.65;6.20;;;;;;;7.59;86.67;102391.81;5022140;28;20195;-76
2022/11/13 01:03:34;;;;;;;11.43;6.32;;;;;;;7.37;88.23;102390.59;5025129;28;20414;-74
2022/11/13 01:06:24;;;;;;;13.25;6.40;;;;;;;7.46;87.93;102375.44;5012355;28;20667;-75
2022/11/13 01:09:08;;;;;;;12.80;6.45;;;;;;;7.45;88.01;102374.63;5012718;28;20108;-76
2022/11/13 01:11:52;;;;;;;13.93;6.70;;;;;;;7.56;87.47;102373.94;5015178;28;20056;-74
2022/11/13 01:14:36;;;;;;;13.20;7.53;;;;;;;7.44;87.45;102366.97;5028660;28;20763;-74
2022/11/13 01:17:20;;;;;;;12.18;6.43;;;;;;;7.35;88.16;102360.66;5024636;28;20553;-76
2022/11/13 01:20:05;;;;;;;13.80;6.13;;;;;;;7.35;88.31;102360.66;5016799;28;20324;-76
2022/11/13 01:22:50;;;;;;;12.85;6.50;;;;;;;7.37;88.15;102359.63;5031398;28;20103;-76
2022/11/13 01:25:34;;;;;;;12.32;6.47;;;;;;;7.41;87.57;102362.84;5018034;28;20060;-75
2022/11/13 01:28:18;;;;;;;16.00;7.05;;;;;;;7.39;88.10;102347.44;5028230;28;20103;-75
2022/11/13 01:31:07;;;;;;;14.15;6.13;;;;;;;7.36;87.79;102350.22;5014060;28;20094;-76
2022/11/13 01:33:51;;;;;;;9.00;5.60;;;;;;;7.36;87.78;102354.56;5023764;28;20215;-75
2022/11/13 01:36:35;;;;;;;10.13;6.20;;;;;;;7.47;87.20;102346.97;5034368;28;20051;-76
2022/11/13 01:39:19;;;;;;;11.57;5.38;;;;;;;7.46;87.52;102349.63;5015545;28;20041;-75
2022/11/13 01:42:03;;;;;;;8.95;6.13;;;;;;;7.41;87.60;102348.19;5025618;28;20103;-75
2022/11/13 01:44:51;;;;;;;11.13;5.68;;;;;;;7.51;87.14;102351.00;5016992;28;20085;-75
2022/11/13 01:47:35;;;;;;;9.43;5.35;;;;;;;7.55;86.84;102338.72;5010296;28;20118;-75
2022/11/13 01:50:19;;;;;;;10.68;5.90;;;;;;;7.56;86.85;102338.63;5008220;28;20041;-75
2022/11/13 01:53:03;;;;;;;11.50;6.43;;;;;;;7.59;86.69;102341.03;5012820;28;20145;-75
2022/11/13 01:55:48;;;;;;;11.55;6.57;;;;;;;7.57;86.78;102329.97;5012403;28;20044;-75
2022/11/13 01:58:33;;;;;;;14.63;6.38;;;;;;;7.52;87.03;102328.63;5024441;28;20056;-76
2022/11/13 02:01:17;;;;;;;11.63;6.07;;;;;;;7.55;86.95;102329.25;5027759;28;20076;-76
2022/11/13 02:04:01;;;;;;;12.38;6.57;;;;;;;7.58;87.07;102330.78;5017705;28;20098;-75
2022/11/13 02:06:53;;;;;;;12.52;5.90;;;;;;;7.61;86.63;102322.88;5016117;28;20052;-75
2022/11/13 02:09:40;;;;;;;9.90;5.80;;;;;;;7.51;86.71;102319.19;5013369;28;20115;-75
2022/11/13 02:12:30;;;;;;;10.55;5.47;;;;;;;7.44;87.36;102316.22;5013619;28;20044;-75
2022/11/13 02:15:15;;;;;;;11.82;6.53;;;;;;;7.45;87.12;102310.09;5028066;28;20048;-75
2022/11/13 02:18:00;;;;;;;12.70;6.88;;;;;;;7.30;87.72;102314.47;5029611;28;20043;-76
2022/11/13 02:21:03;;;;;;;13.13;5.82;;;;;;;7.27;88.27;102306.97;5025415;28;20068;-75
2022/11/13 02:24:08;;;;;;;9.60;5.72;;;;;;;7.16;88.93;102315.38;5005949;28;20061;-76
2022/11/13 02:26:54;;;;;;;11.93;6.43;;;;;;;7.08;89.72;102303.88;5022956;28;20044;-75
2022/11/13 02:29:39;;;;;;;10.73;6.13;;;;;;;7.00;90.22;102304.34;5022948;28;20075;-76
2022/11/13 02:32:23;;;;;;;10.32;5.60;;;;;;;6.98;90.70;102311.34;5010940;28;20052;-76
2022/11/13 02:35:07;;;;;;;10.90;6.30;;;;;;;6.94;90.76;102308.13;5032351;28;20079;-76
2022/11/13 02:37:51;;;;;;;10.55;5.97;;;;;;;6.92;90.98;102306.59;5033169;28;20048;-75
2022/11/13 02:40:36;;;;;;;10.73;6.25;;;;;;;6.91;90.88;102298.03;5015376;28;20052;-76
2022/11/13 02:43:20;;;;;;;10.35;6.55;;;;;;;6.91;90.29;102300.63;5018191;28;20048;-76
2022/11/13 02:46:04;;;;;;;11.68;5.90;;;;;;;6.86;90.49;102306.97;5006401;28;20037;-76
2022/11/13 02:48:48;;;;;;;10.80;5.90;;;;;;;6.93;89.76;102309.06;5012208;28;20514;-76
2022/11/13 02:51:32;;;;;;;10.02;5.97;;;;;;;6.96;89.18;102306.28;5024914;28;20191;-76
2022/11/13 02:54:16;;;;;;;10.52;5.88;;;;;;;6.87;89.47;102312.00;5023341;28;20505;-75
2022/11/13 02:57:00;;;;;;;8.70;5.75;;;;;;;6.86;89.59;102304.41;5006504;28;20122;-75
2022/11/13 02:59:44;;;;;;;9.15;5.65;;;;;;;6.78;89.80;102300.53;5024397;28;20092;-76
2022/11/13 03:02:28;;;;;;;10.88;5.93;;;;;;;6.77;90.07;102296.28;5018592;28;20091;-74
2022/11/13 03:05:12;;;;;;;10.05;5.70;;;;;;;6.72;90.25;102290.56;5006274;28;20129;-76
2022/11/13 03:07:57;;;;;;;12.27;6.00;;;;;;;6.73;90.48;102297.41;5026237;28;20136;-75
2022/11/13 03:10:41;;;;;;;10.05;6.20;;;;;;;6.73;90.33;102294.81;5026872;28;20057;-76
2022/11/13 03:13:26;;;;;;;9.27;5.40;;;;;;;6.66;91.12;102290.97;5013330;28;20122;-76
2022/11/13 03:16:13;;;;;;;9.98;5.95;;;;;;;6.63;90.59;102289.41;5021478;28;20069;-76
2022/11/13 03:18:57;;;;;;;10.95;6.25;;;;;;;6.69;90.47;102292.53;5029957;28;20287;-76
2022/11/13 03:21:41;;;;;;;10.65;6.35;;;;;;;6.62;90.25;102298.06;5014784;28;20121;-75
2022/11/13 03:24:25;;;;;;;13.43;5.97;;;;;;;6.56;90.86;102292.47;5022342;28;20051;-76
2022/11/13 03:27:09;;;;;;;12.35;6.30;;;;;;;6.59;90.60;102287.09;5007695;28;20060;-75
2022/11/13 03:29:53;;;;;;;11.02;6.55;;;;;;;6.58;90.92;102291.44;5011556;28;20515;-75
2022/11/13 03:32:37;;;;;;;14.50;6.63;;;;;;;6.58;90.61;102288.03;5009495;28;20099;-76
2022/11/13 03:35:24;;;;;;;9.85;5.53;;;;;;;6.51;90.85;102289.31;5019823;28;20064;-76
2022/11/13 03:38:08;;;;;;;13.05;6.45;;;;;;;6.46;91.01;102283.63;5028317;28;20941;-76
2022/11/13 03:40:52;;;;;;;10.82;6.38;;;;;;;6.55;90.82;102281.31;5024777;28;20051;-76
2022/11/13 03:43:36;;;;;;;10.77;6.13;;;;;;;6.47;91.02;102280.13;5033538;28;20039;-76
2022/11/13 03:46:20;;;;;;;10.05;5.47;;;;;;;6.46;91.24;102273.31;5012696;28;20247;-75
2022/11/13 03:49:04;;;;;;;10.82;5.88;;;;;;;6.55;91.28;102268.41;5031809;28;20048;-75
2022/11/13 03:51:48;;;;;;;10.35;6.07;;;;;;;6.57;91.60;102268.31;5034295;28;20435;-75
2022/11/13 03:54:32;;;;;;;11.32;5.95;;;;;;;6.52;91.89;102262.66;5016417;28;20051;-75
2022/11/13 03:57:16;;;;;;;9.75;5.60;;;;;;;6.50;91.97;102261.88;5025465;28;20533;-76
2022/11/13 04:00:00;;;;;;;11.38;5.82;;;;;;;6.52;91.79;102263.47;5027352;28;20048;-75
2022/11/13 04:02:44;;;;;;;18.27;6.95;;;;;;;6.51;91.54;102259.22;5013666;28;20163;-75
2022/11/13 04:05:28;;;;;;;10.38;6.32;;;;;;;6.42;91.99;102260.63;5009256;28;20641;-75
2022/11/13 04:08:13;;;;;;;10.82;6.65;;;;;;;6.37;92.10;102262.66;5028019;28;20096;-75
2022/11/13 04:11:08;;;;;;;10.73;6.22;;;;;;;6.40;92.37;102259.91;5022321;28;20466;-75
2022/11/13 04:13:52;;;;;;;11.73;6.38;;;;;;;6.31;92.59;102260.44;5014470;28;20044;-75
2022/11/13 04:16:35;;;;;;;10.68;5.82;;;;;;;6.30;92.63;102263.13;5016823;28;20044;-75
2022/11/13 04:19:19;;;;;;;12.23;6.30;;;;;;;6.30;92.68;102263.13;5013875;28;20514;-76
2022/11/13 04:22:03;;;;;;;11.07;6.60;;;;;;;6.33;92.83;102260.31;5024913;28;20071;-76
2022/11/13 04:24:47;;;;;;;9.93;6.20;;;;;;;6.34;92.15;102270.56;5015088;28;20048;-75
2022/11/13 04:27:31;;;;;;;12.05;6.13;;;;;;;6.26;92.27;102261.66;5024777;28;20072;-76
2022/11/13 04:30:15;;;;;;;10.65;6.32;;;;;;;6.23;92.58;102260.06;5013412;28;20114;-75
2022/11/13 04:32:59;;;;;;;9.43;5.88;;;;;;;6.19;93.25;102248.28;5013760;28;20048;-76
2022/11/13 04:35:44;;;;;;;10.30;6.18;;;;;;;6.12;93.79;102242.69;5027878;28;20176;-75
2022/11/13 04:38:28;;;;;;;11.65;6.65;;;;;;;6.17;93.64;102247.56;5026994;28;20044;-75
2022/11/13 04:44:16;;;;;;;9.93;6.00;;;;;;;6.09;93.68;102255.75;5031047;28;20498;-76
2022/11/13 04:47:00;;;;;;;13.48;6.00;;;;;;;6.12;93.94;102255.56;5013681;28;20098;-74
2022/11/13 04:49:44;;;;;;;11.10;6.38;;;;;;;6.17;93.84;102261.25;5026737;28;20460;-75
2022/11/13 04:52:27;;;;;;;10.75;7.13;;;;;;;6.08;93.87;102258.41;5027249;28;20175;-75
2022/11/13 04:55:12;;;;;;;9.95;6.43;;;;;;;6.18;94.11;102255.19;5031245;28;20099;-76
2022/11/13 04:57:56;;;;;;;10.15;6.57;;;;;;;6.05;94.19;102251.69;5025810;28;20065;-76
2022/11/13 05:00:40;;;;;;;10.48;5.85;;;;;;;5.96;94.25;102247.09;5025329;28;20064;-75
2022/11/13 05:03:25;;;;;;;12.20;6.65;;;;;;;5.97;94.54;102251.31;5026711;28;20095;-75
2022/11/13 05:06:09;;;;;;;9.65;5.97;;;;;;;5.97;94.63;102252.16;5027671;28;20080;-76
2022/11/13 05:08:53;;;;;;;11.70;6.20;;;;;;;5.91;94.67;102244.72;5009829;28;20052;-76
2022/11/13 05:11:38;;;;;;;10.07;6.45;;;;;;;5.84;94.87;102243.47;5010620;28;20107;-75
2022/11/13 05:14:22;;;;;;;10.60;6.03;;;;;;;5.73;95.49;102235.53;5012883;28;20052;-76
2022/11/13 05:17:09;;;;;;;9.48;6.00;;;;;;;5.64;95.66;102239.47;5031778;28;20550;-76
2022/11/13 05:19:53;;;;;;;14.75;6.97;;;;;;;5.60;95.26;102235.41;5027404;28;20071;-76
2022/11/13 05:22:37;;;;;;;11.65;6.25;;;;;;;5.54;95.63;102228.03;5009505;28;20064;-75
2022/11/13 05:25:21;;;;;;;10.57;6.32;;;;;;;5.60;95.99;102223.38;5006395;28;20123;-75
2022/11/13 05:28:05;;;;;;;9.43;6.30;;;;;;;5.64;95.67;102216.31;5030258;28;20060;-76
2022/11/13 05:30:49;;;;;;;12.40;6.05;;;;;;;5.60;95.67;102215.66;5030667;28;20090;-75
2022/11/13 05:33:34;;;;;;;11.65;6.60;;;;;;;5.64;95.59;102213.72;5011066;28;20084;-75
2022/11/13 05:36:20;;;;;;;11.40;7.18;;;;;;;5.64;95.91;102213.72;5029013;28;20073;-74
2022/11/13 05:39:05;;;;;;;9.68;6.10;;;;;;;5.73;95.87;102204.66;5013916;28;20475;-75
2022/11/13 05:41:49;;;;;;;12.35;6.18;;;;;;;5.75;95.52;102213.09;5013158;28;20049;-75
2022/11/13 05:44:33;;;;;;;10.90;6.90;;;;;;;5.61;95.85;102207.03;5023391;28;20064;-76
2022/11/13 05:47:17;;;;;;;12.07;6.43;;;;;;;5.74;95.36;102203.72;5016274;28;20052;-76
2022/11/13 05:50:01;;;;;;;13.48;6.90;;;;;;;5.72;95.21;102210.72;5017939;28;20400;-76
2022/11/13 05:52:45;;;;;;;12.77;7.32;;;;;;;5.60;95.41;102205.34;5012525;28;20057;-76
2022/11/13 05:55:29;;;;;;;10.07;6.38;;;;;;;5.64;95.73;102206.81;5028469;28;20123;-75
2022/11/13 05:58:13;;;;;;;12.75;7.00;;;;;;;5.63;95.76;102201.75;5035157;28;20243;-76
2022/11/13 06:01:29;;;;;;;9.07;6.30;;;;;;;5.57;95.58;102204.69;5024725;28;20048;-75
2022/11/13 06:04:13;;;;;;;10.48;6.38;;;;;;;5.47;95.94;102194.94;5020182;28;20040;-76
2022/11/13 06:06:57;;;;;;;9.75;6.35;;;;;;;5.44;96.21;102200.28;5025628;28;20056;-76
2022/11/13 06:09:41;;;;;;;9.55;6.18;;;;;;;5.43;96.08;102196.03;5029848;28;20071;-75
2022/11/13 06:12:25;;;;;;;9.25;6.40;;;;;;;5.31;96.21;102196.72;5010318;28;20723;-75
2022/11/13 06:15:09;;;;;;;11.82;6.90;;;;;;;5.21;96.60;102187.88;5013363;28;20048;-76
2022/11/13 06:17:53;;;;;;;10.80;6.10;;;;;;;5.16;97.04;102182.16;5017603;28;20055;-76
2022/11/13 06:20:37;;;;;;;12.23;6.97;;;;;;;5.09;96.99;102176.56;5026932;28;20146;-76
2022/11/13 06:23:21;;;;;;;10.60;6.32;;;;;;;5.07;97.35;102174.06;5032112;28;20117;-76
2022/11/13 06:26:10;;;;;;;9.98;5.88;;;;;;;5.02;97.51;102167.53;5012311;28;20740;-76
2022/11/13 06:28:54;;;;;;;10.75;6.00;;;;;;;5.00;97.55;102180.47;5023458;28;20088;-76
2022/11/13 06:31:38;;;;;;;9.27;5.78;;;;;;;4.99;97.47;102177.97;5013103;28;20100;-75
2022/11/13 06:34:22;;;;;;;10.60;6.75;;;;;;;4.99;97.98;102170.25;5017053;28;20436;-75
2022/11/13 06:37:07;;;;;;;11.82;7.38;;;;;;;4.99;97.87;102171.13;5030761;28;20064;-75
2022/11/13 06:39:50;;;;;;;15.57;8.02;;;;;;;4.98;97.71;102176.34;5034181;28;20047;-75
2022/11/13 06:42:34;;;;;;;13.88;8.30;;;;;;;4.96;97.60;102161.00;5024132;28;20722;-75
2022/11/13 06:45:18;;;;;;;12.60;8.15;;;;;;;4.93;97.35;102168.88;5022402;28;20558;-76
2022/11/13 06:48:03;;;;;;;15.55;7.75;;;;;;;4.90;96.84;102163.06;5026419;28;20604;-74
2022/11/13 06:50:47;;;;;;;10.75;6.97;;;;;;;4.85;97.13;102161.59;5006791;28;20072;-76
2022/11/13 06:53:32;;;;;;;13.95;6.63;;;;;;;4.83;96.90;102165.16;5017256;28;20049;-75
2022/11/13 06:56:16;;;;;;;12.65;7.75;;;;;;;4.79;96.97;102167.06;5024756;28;20114;-76
2022/11/13 06:59:00;;;;;;;10.63;6.70;;;;;;;4.73;96.97;102161.44;5016041;28;20048;-76
2022/11/13 07:01:44;;;;;;;13.20;7.25;;;;;;;4.68;97.10;102161.69;5015387;22;20056;-76
2022/11/13 07:04:28;;;;;;;12.77;7.43;;;;;;;4.66;97.19;102160.94;5016686;28;20374;-75
2022/11/13 07:07:12;;;;;;;10.93;6.72;;;;;;;4.60;97.19;102167.25;5004619;28;20072;-75
2022/11/13 07:09:56;;;;;;;9.75;6.22;;;;;;;4.57;97.64;102162.28;5019269;28;20048;-75
2022/11/13 07:12:40;;;;;;;14.43;8.23;;;;;;;4.56;97.46;102155.50;5014408;28;20797;-75
2022/11/13 07:15:24;;;;;;;13.27;9.73;;;;;;;4.59;97.01;102157.88;5003476;28;20064;-76
2022/11/13 07:18:08;;;;;;;14.57;9.45;;;;;;;4.59;97.54;102151.91;5003146;28;20044;-75
2022/11/13 07:20:52;;;;;;;14.45;9.20;;;;;;;4.59;97.49;102145.03;5004303;28;20048;-76
2022/11/13 07:23:42;;;;;;;13.23;9.05;;;;;;;4.59;97.28;102149.34;5020828;28;20059;-75
2022/11/13 07:26:26;;;;;;;13.50;8.30;;;;;;;4.60;96.93;102154.41;5018858;28;20079;-75
2022/11/13 07:29:10;;;;;;;12.15;8.15;;;;;;;4.59;97.23;102146.78;5005515;28;20099;-75
2022/11/13 07:31:55;;;;;;;11.70;7.65;;;;;;;4.57;97.49;102138.34;5004485;28;20040;-75
2022/11/13 07:34:39;;;;;;;11.70;7.30;;;;;;;4.55;97.69;102145.28;5004637;28;20103;-74
2022/11/13 07:37:22;;;;;;;10.77;6.70;;;;;;;4.56;97.60;102146.94;5007472;28;20045;-76
2022/11/13 07:40:07;;;;;;;12.32;7.53;;;;;;;4.58;97.60;102145.97;5006577;28;20037;-76
2022/11/13 07:42:58;;;;;;;14.57;8.02;;;;;;;4.66;98.18;102148.09;5006174;28;20110;-76
2022/11/13 07:45:43;;;;;;;10.63;6.05;;;;;;;4.93;97.89;102144.91;5002649;28;20052;-75
2022/11/13 07:48:27;;;;;;;10.90;6.18;;;;;;;5.13;97.19;102136.06;5022350;28;20421;-76
2022/11/13 07:51:12;;;;;;;15.32;6.78;;;;;;;5.21;96.08;102134.69;5004821;28;20064;-76
2022/11/13 07:53:56;;;;;;;10.02;6.13;;;;;;;5.36;95.45;102135.56;5017857;28;20550;-75
2022/11/13 07:56:40;;;;;;;9.32;6.07;;;;;;;5.37;94.77;102129.50;5016212;28;20056;-75
2022/11/13 07:59:24;;;;;;;11.05;6.00;;;;;;;5.44;94.30;102129.97;5019353;28;20073;-74
2022/11/13 08:02:14;;;;;;;10.13;5.40;;;;;;;5.66;92.59;102127.78;5011980;28;20137;-75
2022/11/13 08:04:58;;;;;;;11.25;5.40;;;;;;;5.70;91.54;102122.47;5004253;28;20044;-76
2022/11/13 08:07:42;;;;;;;8.63;5.25;;;;;;;5.82;90.60;102124.28;5018317;28;20167;-76
2022/11/13 08:10:26;;;;;;;8.52;5.45;;;;;;;5.91;89.74;102117.75;5001203;28;20080;-74
2022/11/13 08:13:10;;;;;;;9.48;5.18;;;;;;;5.96;89.99;102108.03;5019446;28;20064;-76
2022/11/13 08:15:58;;;;;;;6.38;4.18;;;;;;;5.97;89.33;102117.41;5023851;28;20125;-75
2022/11/13 08:18:42;;;;;;;13.27;4.50;;;;;;;6.11;89.01;102108.84;5021137;28;20103;-75
2022/11/13 08:21:26;;;;;;;7.15;4.47;;;;;;;6.22;87.93;102107.25;5004814;28;20490;-76
2022/11/13 08:24:10;;;;;;;7.50;4.50;;;;;;;6.37;86.65;102118.34;5009560;28;20519;-76
2022/11/13 08:26:54;;;;;;;6.95;4.50;;;;;;;6.67;85.58;102114.75;5008765;28;20100;-76
2022/11/13 08:29:38;;;;;;;8.32;4.50;;;;;;;6.92;83.95;102115.75;5025249;28;20115;-76
2022/11/13 08:32:22;;;;;;;6.75;4.47;;;;;;;7.30;81.53;102108.06;5019759;28;20094;-76
2022/11/13 08:35:06;;;;;;;6.30;3.92;;;;;;;7.60;80.02;102094.81;5018374;28;20076;-76
2022/11/13 08:37:50;;;;;;;8.48;4.40;;;;;;;7.99;77.06;102090.44;5007232;28;20561;-76
2022/11/13 08:40:34;;;;;;;8.13;3.67;;;;;;;8.29;75.37;102094.38;5004828;28;20119;-75
2022/11/13 08:43:18;;;;;;;7.13;4.13;;;;;;;8.53;73.89;102085.81;5022261;28;20063;-76
2022/11/13 08:46:03;;;;;;;8.02;4.53;;;;;;;8.70;72.14;102082.84;5005438;28;20568;-75
2022/11/13 08:48:47;;;;;;;5.40;3.10;;;;;;;8.89;70.43;102084.03;5021485;28;20043;-75
2022/11/13 08:51:31;;;;;;;8.02;3.53;;;;;;;8.88;68.82;102072.88;5010584;28;20057;-75
2022/11/13 08:54:15;;;;;;;9.18;2.78;;;;;;;8.79;68.93;102065.78;5018663;28;20076;-75
2022/11/13 08:56:59;;;;;;;5.63;3.05;;;;;;;8.73;69.25;102067.06;5018807;28;20437;-76
2022/11/13 08:59:43;;;;;;;6.85;2.65;;;;;;;8.74;68.67;102070.50;5006222;28;20048;-75
2022/11/13 09:02:27;;;;;;;4.00;2.45;;;;;;;8.71;69.05;102061.19;5020192;28;20084;-75
2022/11/13 09:05:11;;;;;;;3.95;2.25;;;;;;;8.70;68.76;102056.97;5006850;28;20526;-74
2022/11/13 09:08:00;;;;;;;5.85;2.65;;;;;;;8.88;67.90;102059.13;5021545;28;20407;-75
2022/11/13 09:10:44;;;;;;;5.05;2.85;;;;;;;8.94;67.30;102050.91;5002309;28;20055;-75
2022/11/13 09:13:28;;;;;;;5.05;2.70;;;;;;;8.89;68.69;102055.59;5006993;28;20142;-75
2022/11/13 09:16:13;;;;;;;4.10;2.38;;;;;;;8.98;67.78;102049.72;5020315;28;20453;-75
2022/11/13 09:18:57;;;;;;;4.93;2.72;;;;;;;9.14;67.02;102050.22;5019373;28;20533;-76
2022/11/13 09:21:41;;;;;;;6.68;2.95;;;;;;;9.14;67.69;102041.66;5021139;28;20076;-75
2022/11/13 09:24:25;;;;;;;7.18;2.67;;;;;;;9.17;67.43;102038.81;5008491;28;20415;-75
2022/11/13 09:27:09;;;;;;;4.75;2.78;;;;;;;9.22;67.78;102041.06;5006446;28;20122;-75
2022/11/13 09:29:53;;;;;;;3.92;2.33;;;;;;;9.25;67.40;102033.06;5008914;28;20176;-76
2022/11/13 09:32:37;;;;;;;7.20;2.50;;;;;;;9.39;67.53;102029.41;5001244;28;20094;-76
2022/11/13 09:35:34;;;;;;;4.75;2.17;;;;;;;9.46;67.74;102038.38;5021274;28;20144;-76
2022/11/13 09:38:18;;;;;;;4.65;2.70;;;;;;;9.42;68.19;102026.56;5022856;28;20052;-76
2022/11/13 09:41:13;;;;;;;4.10;2.30;;;;;;;9.53;67.82;102024.81;5018053;28;20059;-75
2022/11/13 09:44:11;;;;;;;4.75;2.40;;;;;;;9.65;67.62;102024.81;5017588;28;20568;-75
2022/11/13 09:47:19;;;;;;;4.57;2.40;;;;;;;9.78;67.54;102024.69;5016280;28;20584;-75
2022/11/13 09:50:19;;;;;;;3.72;2.35;;;;;;;9.99;66.63;102019.56;5005673;28;20044;-76
2022/11/13 09:53:04;;;;;;;5.00;2.28;;;;;;;10.18;65.03;102019.72;5022383;28;20403;-75
2022/11/13 09:56:07;;;;;;;2.45;1.48;;;;;;;10.28;62.80;102014.63;5001801;28;20076;-74
2022/11/13 09:59:00;;;;;;;3.93;1.80;;;;;;;10.56;61.59;102009.81;5017081;28;20125;-75
2022/11/13 10:02:02;;;;;;;2.80;1.60;;;;;;;10.80;59.12;102005.19;5022862;28;20853;-76
2022/11/13 10:05:00;;;;;;;4.32;1.30;;;;;;;10.90;57.38;102007.81;5018920;28;20510;-75
2022/11/13 10:08:14;;;;;;;2.85;1.40;;;;;;;11.13;54.35;102000.69;5020428;28;20044;-75
2022/11/13 10:11:13;;;;;;;;;;;;;;;11.36;53.91;102003.94;5018596;28;20557;-74
2022/11/13 10:14:10;;;;;;;3.22;1.42;;;;;;;11.49;53.28;102009.72;5006893;28;19919;-75
2022/11/13 10:17:02;;;;;;;2.80;1.58;;;;;;;11.48;54.15;102010.66;5017857;28;20430;-75
2022/11/13 10:19:56;;;;;;;2.25;1.40;;;;;;;11.41;53.85;102004.34;5021955;28;20541;-75
2022/11/13 10:22:49;;;;;;;3.00;1.63;;;;;;;11.64;52.90;102006.72;5005136;28;20079;-74
2022/11/13 10:25:36;;;;;;;4.13;1.40;;;;;;;11.75;52.48;102004.00;5020817;28;20076;-75
2022/11/13 10:28:22;;;;;;;1.63;1.30;;;;;;;11.72;52.84;102006.09;5016928;28;20180;-75
2022/11/13 10:31:09;;;;;;;1.92;1.20;;;;;;;11.67;54.00;102003.88;5003027;28;20058;-75
2022/11/13 10:33:56;;;;;;;2.65;1.50;;;;;;;11.84;53.07;102002.38;5005908;28;20125;-75
2022/11/13 10:37:05;;;;;;;3.00;1.65;;;;;;;11.85;54.30;101997.06;5007160;28;20119;-75
2022/11/13 10:39:49;;;;;;;3.97;1.73;;;;;;;11.88;53.79;101986.41;5006640;28;20470;-75
2022/11/13 10:42:42;;;;;;;4.20;1.52;;;;;;;12.06;53.14;101993.56;5006697;28;20399;-74
2022/11/13 10:45:26;;;;;;;2.55;1.60;;;;;;;11.92;54.54;101991.34;5006619;28;20056;-75
2022/11/13 10:48:21;;;;;;;2.30;1.35;;;;;;;11.91;53.61;101993.13;5000043;28;20095;-74
2022/11/13 10:51:21;;;;;;;3.05;1.48;;;;;;;12.12;53.32;101982.59;5019061;28;20115;-75
2022/11/13 10:54:34;;;;;;;2.28;1.38;;;;;;;12.24;52.94;101994.50;5018737;28;20472;-75
2022/11/13 10:57:27;;;;;;;2.28;1.33;;;;;;;12.40;52.26;101985.31;5011066;28;20056;-75
2022/11/13 11:00:40;;;;;;;1.83;1.47;;;;;;;12.36;52.52;101971.78;5017870;28;20083;-73
2022/11/13 11:03:25;;;;;;;2.90;1.38;;;;;;;12.40;51.62;101967.13;5018496;28;20530;-74
2022/11/13 11:06:10;;;;;;;2.33;1.38;;;;;;;12.49;51.28;101957.63;5019249;28;20411;-75
2022/11/13 11:09:05;;;;;;;2.72;1.42;;;;;;;12.35;53.97;101959.72;5004371;28;20471;-75
2022/11/13 11:12:20;;;;;;;3.15;1.20;;;;;;;12.41;52.20;101950.53;5018874;28;20067;-75
2022/11/13 11:15:18;;;;;;;3.83;1.50;;;;;;;12.48;51.49;101951.63;5006974;28;20088;-75
2022/11/13 11:18:12;;;;;;;1.75;1.27;;;;;;;12.45;51.55;101941.47;5018958;28;20071;-76
2022/11/13 11:20:59;;;;;;;1.80;1.40;;;;;;;12.35;52.07;101940.69;5016848;28;20394;-75
2022/11/13 11:23:49;;;;;;;2.50;1.52;;;;;;;12.42;52.32;101937.38;5020364;28;20115;-76
2022/11/13 11:27:02;;;;;;;3.50;1.30;;;;;;;12.50;52.04;101933.28;5020066;28;20088;-77
2022/11/13 11:30:04;;;;;;;4.45;1.77;;;;;;;12.53;52.61;101936.41;5009628;28;20463;-75
2022/11/13 11:33:19;;;;;;;2.53;1.40;;;;;;;12.68;52.08;101930.75;5018997;28;20121;-75
2022/11/13 11:36:21;;;;;;;2.28;1.30;;;;;;;12.66;53.04;101926.50;5022839;28;20122;-76
2022/11/13 11:39:11;;;;;;;3.22;1.40;;;;;;;12.69;54.23;101922.78;5019440;28;20045;-76
2022/11/13 11:42:19;;;;;;;3.08;1.70;;;;;;;12.57;54.45;101924.75;5004486;28;20068;-74
2022/11/13 11:45:13;;;;;;;2.05;1.33;;;;;;;12.83;52.84;101921.53;5020974;28;20096;-75
2022/11/13 11:47:58;;;;;;;3.95;1.63;;;;;;;12.99;50.64;101913.09;5006387;28;20041;-75
2022/11/13 11:50:55;;;;;;;2.33;1.50;;;;;;;12.93;50.37;101913.69;5022256;28;20060;-75
2022/11/13 11:54:13;;;;;;;1.75;1.08;;;;;;;12.90;49.90;101903.53;5011041;28;20048;-75
2022/11/13 11:57:24;;;;;;;2.95;1.45;;;;;;;13.19;48.36;101903.41;5009256;28;20044;-75
2022/11/13 12:00:13;;;;;;;2.55;1.33;;;;;;;13.05;48.73;101896.88;5009424;28;20072;-75
2022/11/13 12:03:20;;;;;;;2.70;1.55;;;;;;;13.31;46.95;101888.41;5021518;28;20527;-75
2022/11/13 12:06:19;;;;;;;2.80;1.20;;;;;;;13.39;46.91;101885.88;4989618;28;20486;-74
2022/11/13 12:09:12;;;;;;;3.40;1.30;;;;;;;13.42;46.23;101875.97;5025931;28;20132;-75
2022/11/13 12:12:32;;;;;;;4.65;1.58;;;;;;;13.37;47.27;101872.19;5020898;28;20133;-75
2022/11/13 12:15:34;;;;;;;1.55;1.17;;;;;;;13.50;46.34;101874.41;5022506;28;20414;-74
2022/11/13 12:18:54;;;;;;;1.67;1.13;;;;;;;13.50;45.68;101864.00;5011911;28;20048;-74
2022/11/13 12:22:11;;;;;;;1.85;1.27;;;;;;;13.33;47.10;101856.03;5021042;28;20065;-75
2022/11/13 12:25:02;;;;;;;2.88;1.48;;;;;;;13.48;45.60;101852.91;5025258;28;20044;-75
2022/11/13 12:28:06;;;;;;;1.65;1.02;;;;;;;13.69;45.19;101840.38;5008990;28;20083;-75
2022/11/13 12:31:13;;;;;;;2.47;1.17;;;;;;;13.75;44.98;101834.56;4989270;28;20574;-74
2022/11/13 12:34:06;;;;;;;1.58;1.13;;;;;;;13.53;46.96;101825.44;5004617;28;20091;-74
2022/11/13 12:36:52;;;;;;;2.30;1.40;;;;;;;13.58;46.94;101823.19;5022167;28;20043;-75
2022/11/13 12:39:49;;;;;;;3.25;1.05;;;;;;;13.81;44.83;101822.72;5021105;28;20181;-76
2022/11/13 12:42:53;;;;;;;2.45;1.20;;;;;;;13.58;46.07;101818.00;5009231;28;20087;-75
2022/11/13 12:45:37;;;;;;;3.83;1.55;;;;;;;13.46;46.43;101813.97;5021712;28;20080;-74
2022/11/13 12:48:25;;;;;;;3.00;1.40;;;;;;;13.61;44.95;101812.47;5009466;28;20049;-74
2022/11/13 12:51:13;;;;;;;3.28;1.58;;;;;;;13.73;43.92;101813.06;5025701;28;20128;-74
2022/11/13 12:53:57;;;;;;;4.82;1.52;;;;;;;13.57;44.17;101808.53;5010627;28;20158;-75
2022/11/13 12:56:41;;;;;;;3.05;1.60;;;;;;;13.69;44.80;101809.09;5006259;28;20099;-73
2022/11/13 12:59:33;;;;;;;4.38;2.00;;;;;;;13.68;45.10;101801.44;5022885;28;20425;-73
2022/11/13 13:05:19;;;;;;;2.42;1.45;;;;;;;13.49;49.57;101799.84;5018761;28;20561;-77
2022/11/13 13:08:09;;;;;;;3.35;1.52;;;;;;;13.47;48.92;101792.16;5014642;28;20124;-77
2022/11/13 13:10:53;;;;;;;3.65;1.30;;;;;;;13.31;49.17;101787.63;5024296;28;20099;-77